sensor_id;sensor_type;location;lat;lon;timestamp;pressure;altitude;pressure_sealevel;temperature;humidity
81057;BME280;70563;50.084;14.468;2023-09-19T00:01:33;98093.59;;;16.35;87.14
81057;BME280;70563;50.084;14.468;2023-09-19T00:03:58;98104.16;;;16.41;84.99
81057;BME280;70563;50.084;14.468;2023-09-19T00:06:24;98098.69;;;16.36;86.06
81057;BME280;70563;50.084;14.468;2023-09-19T00:08:51;98100.22;;;16.32;85.76
81057;BME280;70563;50.084;14.468;2023-09-19T00:11:17;98102.75;;;16.27;85.81
81057;BME280;70563;50.084;14.468;2023-09-19T00:13:42;98099.44;;;16.20;85.49
81057;BME280;70563;50.084;14.468;2023-09-19T00:16:09;98107.75;;;16.23;85.82
81057;BME280;70563;50.084;14.468;2023-09-19T00:18:37;98107.28;;;16.26;84.61
81057;BME280;70563;50.084;14.468;2023-09-19T00:21:03;98094.91;;;16.32;84.51
81057;BME280;70563;50.084;14.468;2023-09-19T00:23:30;98112.84;;;16.25;84.28
81057;BME280;70563;50.084;14.468;2023-09-19T00:26:00;98109.03;;;16.21;84.30
81057;BME280;70563;50.084;14.468;2023-09-19T00:28:26;98118.53;;;16.28;83.43
81057;BME280;70563;50.084;14.468;2023-09-19T00:30:51;98114.22;;;16.27;84.09
81057;BME280;70563;50.084;14.468;2023-09-19T00:33:18;98127.31;;;16.29;83.52
81057;BME280;70563;50.084;14.468;2023-09-19T00:36:02;98118.53;;;16.28;83.28
81057;BME280;70563;50.084;14.468;2023-09-19T00:38:30;98124.22;;;16.32;83.36
81057;BME280;70563;50.084;14.468;2023-09-19T00:40:57;98122.81;;;16.29;82.53
81057;BME280;70563;50.084;14.468;2023-09-19T00:43:22;98133.13;;;16.26;82.91
81057;BME280;70563;50.084;14.468;2023-09-19T00:45:51;98133.22;;;16.31;81.80
81057;BME280;70563;50.084;14.468;2023-09-19T00:48:20;98124.53;;;16.36;82.05
81057;BME280;70563;50.084;14.468;2023-09-19T00:50:46;98128.13;;;16.41;81.17
81057;BME280;70563;50.084;14.468;2023-09-19T00:53:14;98127.78;;;16.38;81.45
81057;BME280;70563;50.084;14.468;2023-09-19T00:55:40;98139.34;;;16.31;82.01
81057;BME280;70563;50.084;14.468;2023-09-19T00:58:08;98128.59;;;16.26;82.24
81057;BME280;70563;50.084;14.468;2023-09-19T01:00:33;98124.56;;;16.24;82.28
81057;BME280;70563;50.084;14.468;2023-09-19T01:03:00;98123.06;;;16.16;82.82
81057;BME280;70563;50.084;14.468;2023-09-19T01:05:28;98113.44;;;16.03;83.19
81057;BME280;70563;50.084;14.468;2023-09-19T01:07:54;98118.63;;;16.10;83.48
81057;BME280;70563;50.084;14.468;2023-09-19T01:10:21;98117.63;;;15.99;83.66
81057;BME280;70563;50.084;14.468;2023-09-19T01:19:18;98126.28;;;15.95;84.09
81057;BME280;70563;50.084;14.468;2023-09-19T01:21:29;98120.97;;;15.95;84.35
81057;BME280;70563;50.084;14.468;2023-09-19T01:24:25;98118.19;;;15.90;84.23
81057;BME280;70563;50.084;14.468;2023-09-19T01:29:45;98120.75;;;15.85;84.38
81057;BME280;70563;50.084;14.468;2023-09-19T01:32:15;98119.09;;;15.84;84.31
81057;BME280;70563;50.084;14.468;2023-09-19T01:34:50;98111.22;;;15.89;83.54
81057;BME280;70563;50.084;14.468;2023-09-19T01:37:17;98113.09;;;15.88;83.45
81057;BME280;70563;50.084;14.468;2023-09-19T01:39:50;98104.97;;;15.83;83.91
81057;BME280;70563;50.084;14.468;2023-09-19T01:47:33;98118.53;;;15.82;83.74
81057;BME280;70563;50.084;14.468;2023-09-19T01:53:00;98107.91;;;15.93;82.86
81057;BME280;70563;50.084;14.468;2023-09-19T01:55:30;98110.09;;;15.85;82.93
81057;BME280;70563;50.084;14.468;2023-09-19T01:58:06;98112.38;;;15.93;82.86
81057;BME280;70563;50.084;14.468;2023-09-19T02:00:37;98114.84;;;15.94;82.54
81057;BME280;70563;50.084;14.468;2023-09-19T02:03:03;98116.47;;;15.95;82.60
81057;BME280;70563;50.084;14.468;2023-09-19T02:05:29;98113.44;;;16.03;82.02
81057;BME280;70563;50.084;14.468;2023-09-19T02:07:55;98114.59;;;16.08;81.97
81057;BME280;70563;50.084;14.468;2023-09-19T02:10:21;98110.66;;;16.10;81.80
81057;BME280;70563;50.084;14.468;2023-09-19T02:12:47;98109.16;;;16.14;81.42
81057;BME280;70563;50.084;14.468;2023-09-19T02:15:12;98110.19;;;16.25;80.65
81057;BME280;70563;50.084;14.468;2023-09-19T02:17:39;98098.72;;;16.24;81.06
81057;BME280;70563;50.084;14.468;2023-09-19T02:20:05;98095.38;;;16.29;80.90
81057;BME280;70563;50.084;14.468;2023-09-19T02:22:34;98092.69;;;16.29;80.24
81057;BME280;70563;50.084;14.468;2023-09-19T02:25:00;98096.88;;;16.25;80.78
81057;BME280;70563;50.084;14.468;2023-09-19T02:27:27;98103.69;;;16.33;80.46
81057;BME280;70563;50.084;14.468;2023-09-19T02:29:52;98102.75;;;16.27;80.64
81057;BME280;70563;50.084;14.468;2023-09-19T02:32:17;98104.41;;;16.28;80.20
81057;BME280;70563;50.084;14.468;2023-09-19T02:34:43;98110.53;;;16.28;80.23
81057;BME280;70563;50.084;14.468;2023-09-19T02:37:09;98105.22;;;16.28;80.35
81057;BME280;70563;50.084;14.468;2023-09-19T02:39:35;98107.97;;;16.34;80.27
81057;BME280;70563;50.084;14.468;2023-09-19T02:42:01;98103.22;;;16.36;79.99
81057;BME280;70563;50.084;14.468;2023-09-19T02:44:26;98105.88;;;16.36;79.90
81057;BME280;70563;50.084;14.468;2023-09-19T02:46:52;98111.91;;;16.43;79.59
81057;BME280;70563;50.084;14.468;2023-09-19T02:49:17;98107.03;;;16.40;79.60
81057;BME280;70563;50.084;14.468;2023-09-19T02:51:44;98109.22;;;16.43;79.38
81057;BME280;70563;50.084;14.468;2023-09-19T02:54:09;98103.53;;;16.51;78.98
81057;BME280;70563;50.084;14.468;2023-09-19T02:56:35;98099.38;;;16.55;78.98
81057;BME280;70563;50.084;14.468;2023-09-19T02:59:01;98104.91;;;16.53;79.01
81057;BME280;70563;50.084;14.468;2023-09-19T03:01:27;98105.03;;;16.59;78.24
81057;BME280;70563;50.084;14.468;2023-09-19T03:03:53;98101.44;;;16.53;78.84
81057;BME280;70563;50.084;14.468;2023-09-19T03:06:19;98098.56;;;16.54;78.21
81057;BME280;70563;50.084;14.468;2023-09-19T03:08:45;98100.97;;;16.56;78.52
81057;BME280;70563;50.084;14.468;2023-09-19T03:11:12;98095.19;;;16.59;78.11
81057;BME280;70563;50.084;14.468;2023-09-19T03:13:40;98107.00;;;16.51;78.39
81057;BME280;70563;50.084;14.468;2023-09-19T03:16:07;98115.91;;;16.57;78.22
81057;BME280;70563;50.084;14.468;2023-09-19T03:18:36;98102.16;;;16.48;78.73
81057;BME280;70563;50.084;14.468;2023-09-19T03:21:02;98111.06;;;16.54;78.46
81057;BME280;70563;50.084;14.468;2023-09-19T03:23:28;98114.66;;;16.60;78.19
81057;BME280;70563;50.084;14.468;2023-09-19T03:25:57;98110.13;;;16.60;77.92
81057;BME280;70563;50.084;14.468;2023-09-19T03:28:24;98112.53;;;16.62;77.75
81057;BME280;70563;50.084;14.468;2023-09-19T03:31:03;98120.53;;;16.62;78.18
81057;BME280;70563;50.084;14.468;2023-09-19T03:33:28;98122.28;;;16.56;78.36
81057;BME280;70563;50.084;14.468;2023-09-19T03:35:56;98115.00;;;16.51;78.61
81057;BME280;70563;50.084;14.468;2023-09-19T03:38:23;98117.91;;;16.50;78.66
81057;BME280;70563;50.084;14.468;2023-09-19T03:40:48;98125.31;;;16.48;78.75
81057;BME280;70563;50.084;14.468;2023-09-19T03:43:14;98111.34;;;16.41;79.50
81057;BME280;70563;50.084;14.468;2023-09-19T03:45:39;98113.50;;;16.44;78.98
81057;BME280;70563;50.084;14.468;2023-09-19T03:48:09;98114.81;;;16.41;79.32
81057;BME280;70563;50.084;14.468;2023-09-19T03:50:34;98107.72;;;16.35;79.87
81057;BME280;70563;50.084;14.468;2023-09-19T03:53:00;98107.72;;;16.35;79.63
81057;BME280;70563;50.084;14.468;2023-09-19T03:55:25;98121.53;;;16.32;79.60
81057;BME280;70563;50.084;14.468;2023-09-19T03:57:50;98126.53;;;16.28;79.85
81057;BME280;70563;50.084;14.468;2023-09-19T04:00:16;98128.72;;;16.20;80.56
81057;BME280;70563;50.084;14.468;2023-09-19T04:02:46;98128.25;;;16.23;80.40
81057;BME280;70563;50.084;14.468;2023-09-19T04:05:11;98136.72;;;16.20;80.93
81057;BME280;70563;50.084;14.468;2023-09-19T04:07:37;98133.25;;;16.19;80.46
81057;BME280;70563;50.084;14.468;2023-09-19T04:10:03;98138.44;;;16.26;80.30
81057;BME280;70563;50.084;14.468;2023-09-19T04:12:28;98137.19;;;16.28;80.21
81057;BME280;70563;50.084;14.468;2023-09-19T04:14:53;98142.97;;;16.25;80.74
81057;BME280;70563;50.084;14.468;2023-09-19T04:17:19;98149.09;;;16.26;80.76
81057;BME280;70563;50.084;14.468;2023-09-19T04:19:44;98147.47;;;16.25;80.69
81057;BME280;70563;50.084;14.468;2023-09-19T04:22:10;98148.28;;;16.25;80.75
81057;BME280;70563;50.084;14.468;2023-09-19T04:24:37;98151.91;;;16.19;80.86
81057;BME280;70563;50.084;14.468;2023-09-19T04:27:04;98144.38;;;16.16;81.08
81057;BME280;70563;50.084;14.468;2023-09-19T04:29:29;98152.09;;;16.18;81.19
81057;BME280;70563;50.084;14.468;2023-09-19T04:31:55;98162.31;;;16.09;82.20
81057;BME280;70563;50.084;14.468;2023-09-19T04:34:21;98174.72;;;16.15;81.78
81057;BME280;70563;50.084;14.468;2023-09-19T04:36:47;98170.41;;;16.14;81.75
81057;BME280;70563;50.084;14.468;2023-09-19T04:39:13;98169.50;;;16.20;81.53
81057;BME280;70563;50.084;14.468;2023-09-19T04:41:39;98181.66;;;16.16;81.53
81057;BME280;70563;50.084;14.468;2023-09-19T04:44:06;98182.56;;;16.22;81.62
81057;BME280;70563;50.084;14.468;2023-09-19T04:46:32;98185.38;;;16.15;82.10
81057;BME280;70563;50.084;14.468;2023-09-19T04:48:58;98182.00;;;16.20;81.85
81057;BME280;70563;50.084;14.468;2023-09-19T04:51:24;98185.47;;;16.20;81.62
81057;BME280;70563;50.084;14.468;2023-09-19T04:53:50;98192.41;;;16.33;81.21
81057;BME280;70563;50.084;14.468;2023-09-19T04:56:16;98197.84;;;16.26;81.23
81057;BME280;70563;50.084;14.468;2023-09-19T04:58:41;98200.31;;;16.28;81.62
81057;BME280;70563;50.084;14.468;2023-09-19T05:01:07;98210.13;;;16.27;81.47
81057;BME280;70563;50.084;14.468;2023-09-19T05:03:36;98212.22;;;16.25;81.73
81057;BME280;70563;50.084;14.468;2023-09-19T05:06:02;98217.31;;;16.27;81.24
81057;BME280;70563;50.084;14.468;2023-09-19T05:08:27;98211.19;;;16.26;81.30
81057;BME280;70563;50.084;14.468;2023-09-19T05:10:53;98212.22;;;16.25;81.67
81057;BME280;70563;50.084;14.468;2023-09-19T05:13:18;98216.63;;;16.31;80.81
81057;BME280;70563;50.084;14.468;2023-09-19T05:15:43;98206.09;;;16.37;80.52
81057;BME280;70563;50.084;14.468;2023-09-19T05:18:09;98213.59;;;16.40;80.78
81057;BME280;70563;50.084;14.468;2023-09-19T05:20:35;98217.66;;;16.42;80.45
81057;BME280;70563;50.084;14.468;2023-09-19T05:23:05;98222.66;;;16.39;80.55
81057;BME280;70563;50.084;14.468;2023-09-19T05:25:36;98221.25;;;16.48;80.29
81057;BME280;70563;50.084;14.468;2023-09-19T05:28:09;98218.47;;;16.54;79.89
81057;BME280;70563;50.084;14.468;2023-09-19T05:30:37;98216.63;;;16.55;79.79
81057;BME280;70563;50.084;14.468;2023-09-19T05:33:04;98218.84;;;16.58;80.03
81057;BME280;70563;50.084;14.468;2023-09-19T05:35:30;98223.22;;;16.64;79.53
81057;BME280;70563;50.084;14.468;2023-09-19T05:37:57;98229.13;;;16.66;79.79
81057;BME280;70563;50.084;14.468;2023-09-19T05:40:24;98233.44;;;16.67;78.80
81057;BME280;70563;50.084;14.468;2023-09-19T05:42:50;98233.19;;;16.69;78.84
81057;BME280;70563;50.084;14.468;2023-09-19T05:45:18;98236.31;;;16.66;79.26
81057;BME280;70563;50.084;14.468;2023-09-19T05:47:50;98231.56;;;16.68;79.08
81057;BME280;70563;50.084;14.468;2023-09-19T05:50:16;98233.19;;;16.69;78.83
81057;BME280;70563;50.084;14.468;2023-09-19T05:52:43;98239.31;;;16.69;79.43
81057;BME280;70563;50.084;14.468;2023-09-19T05:55:09;98225.88;;;16.64;78.81
81057;BME280;70563;50.084;14.468;2023-09-19T05:57:36;98238.50;;;16.69;79.19
81057;BME280;70563;50.084;14.468;2023-09-19T06:00:05;98235.84;;;16.69;78.51
81057;BME280;70563;50.084;14.468;2023-09-19T06:02:35;98234.00;;;16.69;78.89
81057;BME280;70563;50.084;14.468;2023-09-19T06:05:00;98230.91;;;16.72;78.71
81057;BME280;70563;50.084;14.468;2023-09-19T06:07:26;98241.66;;;16.77;78.47
81057;BME280;70563;50.084;14.468;2023-09-19T06:09:53;98253.47;;;16.93;78.36
81057;BME280;70563;50.084;14.468;2023-09-19T06:12:21;98252.06;;;16.91;78.13
81057;BME280;70563;50.084;14.468;2023-09-19T06:14:47;98260.66;;;16.93;77.96
81057;BME280;70563;50.084;14.468;2023-09-19T06:17:13;98265.41;;;16.91;77.82
81057;BME280;70563;50.084;14.468;2023-09-19T06:19:39;98274.09;;;16.98;77.60
81057;BME280;70563;50.084;14.468;2023-09-19T06:22:04;98279.09;;;17.06;77.36
81057;BME280;70563;50.084;14.468;2023-09-19T06:24:30;98292.53;;;17.11;76.81
81057;BME280;70563;50.084;14.468;2023-09-19T06:26:55;98293.09;;;17.13;76.75
81057;BME280;70563;50.084;14.468;2023-09-19T06:29:21;98292.81;;;17.26;76.15
81057;BME280;70563;50.084;14.468;2023-09-19T06:31:48;98299.66;;;17.34;75.49
81057;BME280;70563;50.084;14.468;2023-09-19T06:34:13;98295.22;;;17.40;75.63
81057;BME280;70563;50.084;14.468;2023-09-19T06:36:43;98306.81;;;17.45;75.04
81057;BME280;70563;50.084;14.468;2023-09-19T06:39:10;98312.81;;;17.52;75.12
81057;BME280;70563;50.084;14.468;2023-09-19T06:41:37;98313.13;;;17.68;74.72
81057;BME280;70563;50.084;14.468;2023-09-19T06:44:04;98329.25;;;17.73;73.98
81057;BME280;70563;50.084;14.468;2023-09-19T06:46:30;98322.38;;;17.89;73.46
81057;BME280;70563;50.084;14.468;2023-09-19T06:48:58;98322.41;;;18.05;72.84
81057;BME280;70563;50.084;14.468;2023-09-19T06:51:23;98325.13;;;17.94;72.85
81057;BME280;70563;50.084;14.468;2023-09-19T06:53:49;98328.91;;;18.26;72.20
81057;BME280;70563;50.084;14.468;2023-09-19T06:56:14;98326.06;;;18.16;71.97
81057;BME280;70563;50.084;14.468;2023-09-19T06:58:39;98334.91;;;18.34;71.54
81057;BME280;70563;50.084;14.468;2023-09-19T07:01:05;98327.63;;;18.63;70.27
81057;BME280;70563;50.084;14.468;2023-09-19T07:03:30;98324.97;;;18.79;70.09
81057;BME280;70563;50.084;14.468;2023-09-19T07:05:56;98337.28;;;18.80;69.34
81057;BME280;70563;50.084;14.468;2023-09-19T07:08:21;98323.59;;;18.77;69.31
81057;BME280;70563;50.084;14.468;2023-09-19T07:10:47;98328.41;;;19.14;68.31
81057;BME280;70563;50.084;14.468;2023-09-19T07:13:17;98332.00;;;19.24;67.95
81057;BME280;70563;50.084;14.468;2023-09-19T07:15:43;98333.19;;;19.34;67.13
81057;BME280;70563;50.084;14.468;2023-09-19T07:18:13;98332.00;;;19.46;66.33
81057;BME280;70563;50.084;14.468;2023-09-19T07:20:40;98345.16;;;20.19;64.19
81057;BME280;70563;50.084;14.468;2023-09-19T07:23:11;98348.59;;;20.14;63.83
81057;BME280;70563;50.084;14.468;2023-09-19T07:25:36;98350.25;;;20.20;63.45
81057;BME280;70563;50.084;14.468;2023-09-19T07:28:01;98355.84;;;20.14;63.97
81057;BME280;70563;50.084;14.468;2023-09-19T07:30:27;98358.16;;;20.05;64.16
81057;BME280;70563;50.084;14.468;2023-09-19T07:32:53;98354.09;;;20.02;64.03
81057;BME280;70563;50.084;14.468;2023-09-19T07:35:18;98357.06;;;20.01;64.27
81057;BME280;70563;50.084;14.468;2023-09-19T07:37:49;98366.09;;;19.95;64.23
81057;BME280;70563;50.084;14.468;2023-09-19T07:40:18;98364.84;;;19.80;64.61
81057;BME280;70563;50.084;14.468;2023-09-19T07:42:44;98363.59;;;19.88;64.54
81057;BME280;70563;50.084;14.468;2023-09-19T07:45:12;98365.13;;;19.79;64.99
81057;BME280;70563;50.084;14.468;2023-09-19T07:47:47;98362.16;;;19.59;65.44
81057;BME280;70563;50.084;14.468;2023-09-19T07:50:13;98366.94;;;19.73;64.94
81057;BME280;70563;50.084;14.468;2023-09-19T07:52:41;98365.94;;;19.79;65.03
81057;BME280;70563;50.084;14.468;2023-09-19T07:55:06;98370.09;;;19.70;64.97
81057;BME280;70563;50.084;14.468;2023-09-19T07:57:36;98373.00;;;19.69;64.96
81057;BME280;70563;50.084;14.468;2023-09-19T08:00:03;98371.19;;;19.69;65.22
81057;BME280;70563;50.084;14.468;2023-09-19T08:02:35;98378.47;;;19.74;64.41
81057;BME280;70563;50.084;14.468;2023-09-19T08:05:00;98373.84;;;19.69;64.61
81057;BME280;70563;50.084;14.468;2023-09-19T08:07:26;98367.13;;;19.50;64.84
81057;BME280;70563;50.084;14.468;2023-09-19T08:09:51;98373.22;;;19.62;64.91
81057;BME280;70563;50.084;14.468;2023-09-19T08:12:16;98376.25;;;19.93;63.82
81057;BME280;70563;50.084;14.468;2023-09-19T08:14:42;98384.72;;;20.34;62.38
81057;BME280;70563;50.084;14.468;2023-09-19T08:17:07;98393.41;;;20.46;61.53
81057;BME280;70563;50.084;14.468;2023-09-19T08:19:35;98392.84;;;21.03;59.33
81057;BME280;70563;50.084;14.468;2023-09-19T08:22:07;98388.09;;;22.76;54.72
81057;BME280;70563;50.084;14.468;2023-09-19T08:24:35;98391.50;;;23.53;52.25
81057;BME280;70563;50.084;14.468;2023-09-19T08:27:01;98388.50;;;24.20;49.88
81057;BME280;70563;50.084;14.468;2023-09-19T08:29:30;98386.66;;;24.15;49.88
81057;BME280;70563;50.084;14.468;2023-09-19T08:31:57;98390.75;;;23.22;51.48
81057;BME280;70563;50.084;14.468;2023-09-19T08:34:23;98396.41;;;22.49;53.10
81057;BME280;70563;50.084;14.468;2023-09-19T08:36:53;98403.69;;;22.69;53.91
81057;BME280;70563;50.084;14.468;2023-09-19T08:39:25;98393.75;;;22.60;53.17
81057;BME280;70563;50.084;14.468;2023-09-19T08:41:57;98394.50;;;22.40;53.53
81057;BME280;70563;50.084;14.468;2023-09-19T08:44:24;98394.03;;;22.99;51.41
81057;BME280;70563;50.084;14.468;2023-09-19T08:46:54;98395.31;;;22.20;53.84
81057;BME280;70563;50.084;14.468;2023-09-19T08:49:26;98400.16;;;22.28;53.64
81057;BME280;70563;50.084;14.468;2023-09-19T08:52:37;98400.31;;;21.96;54.75
81057;BME280;70563;50.084;14.468;2023-09-19T08:55:06;98409.63;;;22.76;52.35
81057;BME280;70563;50.084;14.468;2023-09-19T08:57:36;98407.75;;;23.23;51.59
81057;BME280;70563;50.084;14.468;2023-09-19T09:00:05;98414.69;;;23.49;49.72
81057;BME280;70563;50.084;14.468;2023-09-19T09:02:37;98412.31;;;26.16;43.70
81057;BME280;70563;50.084;14.468;2023-09-19T09:05:05;98423.75;;;26.13;43.18
81057;BME280;70563;50.084;14.468;2023-09-19T09:07:32;98418.47;;;28.94;37.05
81057;BME280;70563;50.084;14.468;2023-09-19T09:10:00;98419.00;;;27.13;39.64
81057;BME280;70563;50.084;14.468;2023-09-19T09:12:25;98422.84;;;27.07;40.38
81057;BME280;70563;50.084;14.468;2023-09-19T09:14:51;98425.28;;;30.42;33.51
81057;BME280;70563;50.084;14.468;2023-09-19T09:17:17;98425.69;;;30.09;33.14
81057;BME280;70563;50.084;14.468;2023-09-19T09:19:46;98430.09;;;31.06;32.33
81057;BME280;70563;50.084;14.468;2023-09-19T09:22:11;98435.97;;;31.16;31.93
81057;BME280;70563;50.084;14.468;2023-09-19T09:24:38;98421.97;;;31.44;30.51
81057;BME280;70563;50.084;14.468;2023-09-19T09:27:15;98420.81;;;28.87;35.76
81057;BME280;70563;50.084;14.468;2023-09-19T09:34:49;98416.78;;;25.06;43.29
81057;BME280;70563;50.084;14.468;2023-09-19T09:37:16;98419.78;;;24.70;44.37
81057;BME280;70563;50.084;14.468;2023-09-19T09:39:58;98420.34;;;24.67;45.44
81057;BME280;70563;50.084;14.468;2023-09-19T09:42:37;98425.16;;;23.71;47.49
81057;BME280;70563;50.084;14.468;2023-09-19T09:45:22;98419.59;;;24.57;46.26
81057;BME280;70563;50.084;14.468;2023-09-19T09:48:09;98419.25;;;25.56;42.61
81057;BME280;70563;50.084;14.468;2023-09-19T09:50:47;98412.09;;;27.35;39.43
81057;BME280;70563;50.084;14.468;2023-09-19T09:53:28;98401.59;;;27.74;38.13
81057;BME280;70563;50.084;14.468;2023-09-19T09:56:04;98394.69;;;28.18;36.32
81057;BME280;70563;50.084;14.468;2023-09-19T09:58:51;98395.13;;;28.48;35.83
81057;BME280;70563;50.084;14.468;2023-09-19T10:01:21;98406.41;;;29.62;33.29
81057;BME280;70563;50.084;14.468;2023-09-19T10:03:57;98417.28;;;29.62;32.34
81057;BME280;70563;50.084;14.468;2023-09-19T10:06:22;98412.66;;;29.71;32.64
81057;BME280;70563;50.084;14.468;2023-09-19T10:09:06;98406.22;;;30.42;31.33
81057;BME280;70563;50.084;14.468;2023-09-19T10:11:35;98402.75;;;27.13;36.72
81057;BME280;70563;50.084;14.468;2023-09-19T10:14:03;98409.59;;;28.07;35.53
81057;BME280;70563;50.084;14.468;2023-09-19T10:16:32;98405.69;;;27.58;36.34
81057;BME280;70563;50.084;14.468;2023-09-19T10:18:59;98421.25;;;27.39;36.38
81057;BME280;70563;50.084;14.468;2023-09-19T10:21:28;98421.25;;;27.52;36.20
81057;BME280;70563;50.084;14.468;2023-09-19T10:23:57;98415.25;;;28.69;33.97
81057;BME280;70563;50.084;14.468;2023-09-19T10:26:26;98411.38;;;28.62;34.76
81057;BME280;70563;50.084;14.468;2023-09-19T10:28:57;98423.91;;;29.47;33.07
81057;BME280;70563;50.084;14.468;2023-09-19T10:31:25;98420.41;;;27.24;36.61
81057;BME280;70563;50.084;14.468;2023-09-19T10:33:53;98419.09;;;26.89;37.76
81057;BME280;70563;50.084;14.468;2023-09-19T10:36:25;98413.84;;;26.79;37.50
81057;BME280;70563;50.084;14.468;2023-09-19T10:38:52;98425.13;;;28.88;34.18
81057;BME280;70563;50.084;14.468;2023-09-19T10:41:22;98414.13;;;29.46;32.96
81057;BME280;70563;50.084;14.468;2023-09-19T10:43:48;98418.88;;;30.90;30.33
81057;BME280;70563;50.084;14.468;2023-09-19T10:46:14;98416.81;;;32.40;28.16
81057;BME280;70563;50.084;14.468;2023-09-19T10:48:40;98418.72;;;34.37;23.47
81057;BME280;70563;50.084;14.468;2023-09-19T10:51:18;98412.34;;;33.22;23.63
81057;BME280;70563;50.084;14.468;2023-09-19T10:53:51;98413.00;;;35.58;20.74
81057;BME280;70563;50.084;14.468;2023-09-19T10:56:23;98406.00;;;34.57;21.38
81057;BME280;70563;50.084;14.468;2023-09-19T10:58:49;98409.28;;;35.82;20.08
81057;BME280;70563;50.084;14.468;2023-09-19T11:01:16;98404.69;;;35.38;19.82
81057;BME280;70563;50.084;14.468;2023-09-19T11:03:42;98408.84;;;35.48;19.68
81057;BME280;70563;50.084;14.468;2023-09-19T11:06:17;98403.44;;;33.13;22.87
81057;BME280;70563;50.084;14.468;2023-09-19T11:11:45;98409.41;;;34.94;20.90
81057;BME280;70563;50.084;14.468;2023-09-19T11:25:41;98393.34;;;31.59;25.03
81057;BME280;70563;50.084;14.468;2023-09-19T11:30:39;98396.91;;;28.75;30.00
81057;BME280;70563;50.084;14.468;2023-09-19T11:36:12;98393.25;;;34.77;21.80
81057;BME280;70563;50.084;14.468;2023-09-19T11:46:26;98393.38;;;34.96;20.36
81057;BME280;70563;50.084;14.468;2023-09-19T11:48:53;98388.88;;;36.92;17.96
81057;BME280;70563;50.084;14.468;2023-09-19T11:51:23;98387.53;;;37.51;16.83
81057;BME280;70563;50.084;14.468;2023-09-19T11:53:53;98391.91;;;36.48;17.73
81057;BME280;70563;50.084;14.468;2023-09-19T11:56:21;98401.59;;;36.81;17.90
81057;BME280;70563;50.084;14.468;2023-09-19T11:58:52;98397.56;;;36.75;17.83
81057;BME280;70563;50.084;14.468;2023-09-19T12:01:32;98402.59;;;36.73;17.68
81057;BME280;70563;50.084;14.468;2023-09-19T12:03:59;98396.88;;;37.24;16.90
81057;BME280;70563;50.084;14.468;2023-09-19T12:06:26;98399.56;;;38.19;16.51
81057;BME280;70563;50.084;14.468;2023-09-19T12:08:52;98405.56;;;37.98;16.17
81057;BME280;70563;50.084;14.468;2023-09-19T12:11:19;98394.31;;;37.11;16.84
81057;BME280;70563;50.084;14.468;2023-09-19T12:13:47;98399.88;;;37.61;16.90
81057;BME280;70563;50.084;14.468;2023-09-19T12:16:15;98389.47;;;37.51;16.12
81057;BME280;70563;50.084;14.468;2023-09-19T12:18:41;98392.91;;;35.38;17.90
81057;BME280;70563;50.084;14.468;2023-09-19T12:23:58;98385.81;;;36.78;16.80
81057;BME280;70563;50.084;14.468;2023-09-19T12:26:23;98390.63;;;34.52;18.36
81057;BME280;70563;50.084;14.468;2023-09-19T12:28:49;98381.97;;;36.24;17.44
81057;BME280;70563;50.084;14.468;2023-09-19T12:31:17;98385.31;;;37.37;15.27
81057;BME280;70563;50.084;14.468;2023-09-19T12:33:44;98383.88;;;36.59;16.65
81057;BME280;70563;50.084;14.468;2023-09-19T12:36:22;98386.41;;;36.67;16.56
81057;BME280;70563;50.084;14.468;2023-09-19T12:38:55;98381.38;;;37.38;15.67
81057;BME280;70563;50.084;14.468;2023-09-19T12:41:21;98377.31;;;35.74;17.07
81057;BME280;70563;50.084;14.468;2023-09-19T12:43:47;98377.97;;;33.58;19.05
81057;BME280;70563;50.084;14.468;2023-09-19T12:46:13;98375.59;;;31.73;21.69
81057;BME280;70563;50.084;14.468;2023-09-19T12:48:40;98365.19;;;30.56;23.38
81057;BME280;70563;50.084;14.468;2023-09-19T12:51:10;98359.22;;;31.73;21.85
81057;BME280;70563;50.084;14.468;2023-09-19T12:53:42;98361.53;;;33.70;19.74
81057;BME280;70563;50.084;14.468;2023-09-19T12:56:10;98366.25;;;35.23;18.13
81057;BME280;70563;50.084;14.468;2023-09-19T12:58:57;98375.75;;;36.27;17.56
81057;BME280;70563;50.084;14.468;2023-09-19T13:01:26;98361.59;;;33.01;19.84
81057;BME280;70563;50.084;14.468;2023-09-19T13:04:30;98368.53;;;31.72;21.63
81057;BME280;70563;50.084;14.468;2023-09-19T13:06:57;98365.38;;;31.23;22.58
81057;BME280;70563;50.084;14.468;2023-09-19T13:09:26;98361.31;;;32.48;20.99
81057;BME280;70563;50.084;14.468;2023-09-19T13:12:03;98362.00;;;33.48;20.22
81057;BME280;70563;50.084;14.468;2023-09-19T13:14:30;98351.69;;;32.42;21.14
81057;BME280;70563;50.084;14.468;2023-09-19T13:17:06;98361.72;;;29.15;24.71
81057;BME280;70563;50.084;14.468;2023-09-19T13:19:46;98360.63;;;29.24;25.08
81057;BME280;70563;50.084;14.468;2023-09-19T13:22:40;98354.25;;;29.78;24.23
81057;BME280;70563;50.084;14.468;2023-09-19T13:25:17;98343.38;;;30.82;23.64
81057;BME280;70563;50.084;14.468;2023-09-19T13:27:48;98346.69;;;32.23;21.31
81057;BME280;70563;50.084;14.468;2023-09-19T13:30:16;98345.31;;;31.96;20.52
81057;BME280;70563;50.084;14.468;2023-09-19T13:32:42;98358.75;;;31.42;21.50
81057;BME280;70563;50.084;14.468;2023-09-19T13:35:09;98350.78;;;30.55;21.58
81057;BME280;70563;50.084;14.468;2023-09-19T13:37:35;98347.47;;;29.58;23.05
81057;BME280;70563;50.084;14.468;2023-09-19T13:40:14;98347.56;;;28.50;24.86
81057;BME280;70563;50.084;14.468;2023-09-19T13:42:40;98342.53;;;28.89;23.45
81057;BME280;70563;50.084;14.468;2023-09-19T13:45:06;98347.63;;;28.59;24.48
81057;BME280;70563;50.084;14.468;2023-09-19T13:47:33;98355.72;;;29.84;23.11
81057;BME280;70563;50.084;14.468;2023-09-19T13:49:59;98352.00;;;29.62;23.26